Time;durP1;ratioP1;P1;durP2;ratioP2;P2;SDS_P1;SDS_P2;PMS_P1;PMS_P2;Temp;Humidity;BMP_temperature;BMP_pressure;BME280_temperature;BME280_humidity;BME280_pressure;Samples;Min_cycle;Max_cycle;Signal;HPM_P1;HPM_P2
2023/09/15 00:00:35;;;;;;;4.57;2.20;;;16.30;99.90;;;;;;4993260;28;20229;-72
2023/09/15 00:03:00;;;;;;;2.20;1.77;;;16.20;99.90;;;;;;4998216;28;20284;-73
2023/09/15 00:05:29;;;;;;;3.35;1.88;;;16.30;99.90;;;;;;4997581;28;20647;-72
2023/09/15 00:07:58;;;;;;;2.00;1.40;;;16.20;99.90;;;;;;4993458;28;20222;-70
2023/09/15 00:10:23;;;;;;;4.28;1.75;;;16.30;99.90;;;;;;4991399;28;20205;-73
2023/09/15 00:12:49;;;;;;;4.20;1.90;;;16.30;99.90;;;;;;4989193;28;20188;-72
2023/09/15 00:15:15;;;;;;;3.58;1.80;;;16.10;99.90;;;;;;4992040;28;20203;-69
2023/09/15 00:17:42;;;;;;;3.45;1.55;;;16.10;99.90;;;;;;5003453;28;20241;-71
2023/09/15 00:20:20;;;;;;;2.80;1.35;;;16.20;99.90;;;;;;4988641;28;20685;-71
2023/09/15 00:22:50;;;;;;;3.33;1.70;;;16.20;99.90;;;;;;4984960;28;20699;-72
2023/09/15 00:25:18;;;;;;;2.83;1.65;;;16.10;99.90;;;;;;4987505;28;20766;-72
2023/09/15 00:27:48;;;;;;;4.93;1.35;;;16.00;99.90;;;;;;4997527;28;20590;-72
2023/09/15 00:30:15;;;;;;;4.22;1.50;;;15.90;99.90;;;;;;4998455;28;20204;-69
2023/09/15 00:32:41;;;;;;;3.70;1.50;;;16.00;99.90;;;;;;4998649;28;20197;-72
2023/09/15 00:35:06;;;;;;;2.53;1.48;;;15.90;99.90;;;;;;4998928;28;20599;-73
2023/09/15 00:37:32;;;;;;;2.85;1.40;;;15.90;99.90;;;;;;4996678;28;20213;-73
2023/09/15 00:39:58;;;;;;;6.35;1.80;;;15.90;99.90;;;;;;4994934;28;20209;-72
2023/09/15 00:42:25;;;;;;;3.58;2.00;;;15.80;99.90;;;;;;4994088;28;20184;-72
2023/09/15 00:44:51;;;;;;;4.10;1.58;;;15.80;99.90;;;;;;4991898;28;20206;-71
2023/09/15 00:47:17;;;;;;;2.50;1.77;;;15.90;99.90;;;;;;4994282;28;20213;-73
2023/09/15 00:49:46;;;;;;;2.50;1.50;;;15.90;99.90;;;;;;4993077;28;20213;-75
2023/09/15 00:52:13;;;;;;;5.07;2.33;;;15.90;99.90;;;;;;4990929;28;20228;-72
2023/09/15 00:54:39;;;;;;;4.32;2.15;;;15.90;99.90;;;;;;4993782;28;20183;-71
2023/09/15 00:57:06;;;;;;;2.75;1.90;;;15.90;99.90;;;;;;4994226;28;20256;-74
2023/09/15 00:59:32;;;;;;;2.55;1.60;;;15.90;99.90;;;;;;4988055;28;20206;-71
2023/09/15 01:02:00;;;;;;;3.85;1.63;;;15.70;99.90;;;;;;4983458;28;20214;-71
2023/09/15 01:04:27;;;;;;;3.00;1.70;;;15.80;99.90;;;;;;4990676;28;20558;-71
2023/09/15 01:06:55;;;;;;;6.18;1.88;;;15.80;99.90;;;;;;4995928;28;20197;-69
2023/09/15 01:09:22;;;;;;;3.92;1.60;;;15.90;99.90;;;;;;4998803;28;20227;-72
2023/09/15 01:11:50;;;;;;;3.53;1.90;;;15.90;99.90;;;;;;5006503;28;20297;-72
2023/09/15 01:14:16;;;;;;;4.32;1.70;;;15.90;99.90;;;;;;5007525;28;20206;-70
2023/09/15 01:17:05;;;;;;;3.92;1.80;;;15.90;99.90;;;;;;4990838;28;20711;-71
2023/09/15 01:19:54;;;;;;;5.18;1.60;;;15.90;99.90;;;;;;5007700;28;20209;-70
2023/09/15 01:23:21;;;;;;;2.90;1.92;;;15.80;99.90;;;;;;4991377;28;20201;-72
2023/09/15 01:26:16;;;;;;;4.22;1.88;;;15.90;99.90;;;;;;4902025;29;20335;-72
2023/09/15 01:29:02;;;;;;;3.47;1.80;;;15.80;99.90;;;;;;4931894;28;20593;-73
2023/09/15 01:31:29;;;;;;;3.60;1.70;;;15.70;99.90;;;;;;4987481;28;20206;-72
2023/09/15 01:33:55;;;;;;;2.38;1.40;;;15.70;99.90;;;;;;4987583;28;20177;-72
2023/09/15 01:36:21;;;;;;;3.03;1.60;;;15.50;99.90;;;;;;4987069;28;20543;-73
2023/09/15 01:38:46;;;;;;;4.57;1.83;;;15.50;99.90;;;;;;4982398;28;20711;-72
2023/09/15 01:41:12;;;;;;;4.25;2.38;;;15.50;99.90;;;;;;4982215;28;20226;-73
2023/09/15 01:43:38;;;;;;;2.08;1.48;;;15.50;99.90;;;;;;4991861;28;20213;-72
2023/09/15 01:46:04;;;;;;;2.55;1.75;;;15.60;99.90;;;;;;4995628;28;20221;-73
2023/09/15 01:48:31;;;;;;;3.45;1.60;;;15.70;99.90;;;;;;4998834;28;20289;-72
2023/09/15 01:50:58;;;;;;;3.63;1.83;;;15.70;99.90;;;;;;4994144;28;20210;-72
2023/09/15 01:53:25;;;;;;;2.92;1.63;;;15.70;99.90;;;;;;4991903;28;20201;-72
2023/09/15 01:55:52;;;;;;;6.00;1.55;;;15.60;99.90;;;;;;4992687;28;20205;-72
2023/09/15 01:58:18;;;;;;;3.75;1.88;;;15.70;99.90;;;;;;4991309;28;20544;-72
2023/09/15 02:00:44;;;;;;;4.00;1.60;;;15.70;99.90;;;;;;4990946;28;20174;-72
2023/09/15 02:03:12;;;;;;;2.67;1.50;;;15.70;99.90;;;;;;4989112;28;20284;-73
2023/09/15 02:05:38;;;;;;;3.95;1.70;;;15.60;99.90;;;;;;4990184;28;20205;-72
2023/09/15 02:08:04;;;;;;;2.15;1.65;;;15.50;99.90;;;;;;4985731;28;20305;-73
2023/09/15 02:10:29;;;;;;;2.70;1.77;;;15.60;99.90;;;;;;4986611;28;20296;-72
2023/09/15 02:12:55;;;;;;;5.00;1.50;;;15.40;99.90;;;;;;4998039;28;20703;-72
2023/09/15 02:15:21;;;;;;;4.43;2.33;;;15.40;99.90;;;;;;4984730;28;20180;-72
2023/09/15 02:17:51;;;;;;;3.88;2.00;;;15.40;99.90;;;;;;4981032;28;20206;-72
2023/09/15 02:20:18;;;;;;;6.32;2.33;;;15.40;99.90;;;;;;5010081;28;20312;-72
2023/09/15 02:22:44;;;;;;;5.13;2.15;;;15.40;99.90;;;;;;4998424;28;20204;-72
2023/09/15 02:25:11;;;;;;;2.95;1.70;;;15.40;99.90;;;;;;4985566;28;20217;-71
2023/09/15 02:27:37;;;;;;;4.30;1.77;;;15.30;99.90;;;;;;4979818;28;20202;-72
2023/09/15 02:30:06;;;;;;;4.88;2.50;;;15.30;99.90;;;;;;4980413;28;20271;-72
2023/09/15 02:32:32;;;;;;;4.22;2.08;;;15.20;99.90;;;;;;4980878;28;20257;-72
2023/09/15 02:34:58;;;;;;;2.80;1.80;;;15.20;99.90;;;;;;4981122;28;20700;-71
2023/09/15 02:37:24;;;;;;;2.15;1.92;;;15.30;99.90;;;;;;4979902;28;20206;-72
2023/09/15 02:39:49;;;;;;;4.28;1.98;;;15.30;99.90;;;;;;4981388;28;20237;-72
2023/09/15 02:42:15;;;;;;;3.25;1.77;;;15.30;99.90;;;;;;4982418;28;20186;-70
2023/09/15 02:44:43;;;;;;;2.53;1.92;;;15.20;99.90;;;;;;4986470;28;20648;-73
2023/09/15 02:47:09;;;;;;;2.67;1.80;;;15.10;99.90;;;;;;4978839;28;20222;-72
2023/09/15 02:49:35;;;;;;;3.42;1.95;;;15.10;99.90;;;;;;4980833;28;20214;-72
2023/09/15 02:52:01;;;;;;;3.25;2.05;;;15.20;99.90;;;;;;4978938;28;20233;-73
2023/09/15 02:54:30;;;;;;;4.72;2.30;;;15.30;99.90;;;;;;4982185;28;20644;-72
2023/09/15 02:56:55;;;;;;;6.10;2.28;;;15.30;99.90;;;;;;4987319;28;20755;-72
2023/09/15 02:59:21;;;;;;;4.63;2.20;;;15.20;99.90;;;;;;4982713;28;20218;-72
2023/09/15 03:01:47;;;;;;;4.38;2.22;;;15.20;99.90;;;;;;5006718;28;20225;-73
2023/09/15 03:04:12;;;;;;;3.72;2.22;;;15.10;99.90;;;;;;4980322;28;20257;-72
2023/09/15 03:06:39;;;;;;;3.83;1.80;;;15.20;99.90;;;;;;4983279;28;20318;-72
2023/09/15 03:09:06;;;;;;;3.55;1.95;;;15.10;99.90;;;;;;4984019;28;20688;-69
2023/09/15 03:11:31;;;;;;;3.22;1.98;;;15.10;99.90;;;;;;4981475;28;20668;-72
2023/09/15 03:13:57;;;;;;;3.75;2.03;;;15.10;99.90;;;;;;4985206;28;20289;-72
2023/09/15 03:16:23;;;;;;;4.53;2.47;;;15.10;99.90;;;;;;4982634;28;20612;-72
2023/09/15 03:18:49;;;;;;;5.72;2.20;;;15.10;99.90;;;;;;4985692;28;20221;-72
2023/09/15 03:21:15;;;;;;;3.20;1.77;;;15.10;99.90;;;;;;4980662;28;20270;-70
2023/09/15 03:23:40;;;;;;;3.60;2.10;;;15.10;99.90;;;;;;4985425;28;20760;-72
2023/09/15 03:26:06;;;;;;;4.30;2.20;;;15.00;99.90;;;;;;4981596;28;20222;-70
2023/09/15 03:28:33;;;;;;;5.05;2.63;;;15.00;99.90;;;;;;4988251;28;20256;-72
2023/09/15 03:31:00;;;;;;;3.95;2.47;;;15.00;99.90;;;;;;4982255;28;20262;-72
2023/09/15 03:33:25;;;;;;;4.20;2.42;;;14.90;99.90;;;;;;4982259;28;20540;-71
2023/09/15 03:35:51;;;;;;;6.50;2.58;;;14.80;99.90;;;;;;4984060;28;20202;-72
2023/09/15 03:38:17;;;;;;;5.18;2.28;;;14.90;99.90;;;;;;4984134;28;20261;-71
2023/09/15 03:40:43;;;;;;;4.55;2.50;;;14.80;99.90;;;;;;4983198;28;20237;-72
2023/09/15 03:43:08;;;;;;;4.95;2.88;;;14.80;99.90;;;;;;4983749;28;20206;-70
2023/09/15 03:45:34;;;;;;;3.65;2.38;;;14.90;99.90;;;;;;4984203;28;20186;-72
2023/09/15 03:48:00;;;;;;;3.50;1.98;;;14.90;99.90;;;;;;4984811;28;20225;-72
2023/09/15 03:50:26;;;;;;;4.07;2.53;;;14.90;99.90;;;;;;5000523;28;20593;-72
2023/09/15 03:52:52;;;;;;;2.95;2.22;;;14.90;99.90;;;;;;4987853;28;20206;-72
2023/09/15 03:55:18;;;;;;;4.15;2.50;;;14.90;99.90;;;;;;4981725;28;20217;-72
2023/09/15 03:57:44;;;;;;;3.20;2.28;;;15.00;99.90;;;;;;4989542;28;20289;-72
2023/09/15 04:00:15;;;;;;;3.70;2.55;;;14.90;99.90;;;;;;4981561;28;20202;-69
2023/09/15 04:02:41;;;;;;;4.32;2.42;;;14.80;99.90;;;;;;5001658;28;20213;-72
2023/09/15 04:05:07;;;;;;;5.28;2.35;;;14.80;99.90;;;;;;4981794;28;20210;-72
2023/09/15 04:07:32;;;;;;;3.55;2.38;;;14.80;99.90;;;;;;4983628;28;20312;-72
2023/09/15 04:09:58;;;;;;;4.20;2.03;;;14.80;99.90;;;;;;4980529;28;20289;-72
2023/09/15 04:12:24;;;;;;;4.03;2.70;;;14.70;99.90;;;;;;4981385;28;20258;-72
2023/09/15 04:14:49;;;;;;;4.68;2.13;;;14.60;99.90;;;;;;4981634;28;20214;-72
2023/09/15 04:17:15;;;;;;;4.20;2.40;;;14.50;99.90;;;;;;4982989;28;20304;-70
2023/09/15 04:19:40;;;;;;;3.47;2.50;;;14.60;99.90;;;;;;4982170;28;20210;-72
2023/09/15 04:22:06;;;;;;;4.28;2.60;;;14.50;99.90;;;;;;5003809;28;20224;-71
2023/09/15 04:24:32;;;;;;;4.82;3.47;;;14.60;99.90;;;;;;5001386;28;20202;-72
2023/09/15 04:26:57;;;;;;;5.30;3.42;;;14.60;99.90;;;;;;4983833;28;20206;-72
2023/09/15 04:29:23;;;;;;;5.07;2.65;;;14.60;99.90;;;;;;4982381;28;20210;-72
2023/09/15 04:31:48;;;;;;;3.60;2.33;;;14.60;99.90;;;;;;4997769;28;20705;-71
2023/09/15 04:34:14;;;;;;;5.72;2.22;;;14.60;99.90;;;;;;4982480;28;20659;-70
2023/09/15 04:36:40;;;;;;;3.00;2.47;;;14.50;99.90;;;;;;4986374;28;20187;-72
2023/09/15 04:39:07;;;;;;;4.93;2.55;;;14.50;99.90;;;;;;4983977;28;20214;-72
2023/09/15 04:41:32;;;;;;;3.67;2.17;;;14.60;99.90;;;;;;5000354;28;20353;-72
2023/09/15 04:43:58;;;;;;;4.88;2.47;;;14.70;99.90;;;;;;4983455;28;20297;-72
2023/09/15 04:46:24;;;;;;;4.43;3.00;;;14.80;99.90;;;;;;4996045;28;20750;-72
2023/09/15 04:48:50;;;;;;;5.25;3.03;;;14.80;99.90;;;;;;4986732;28;20206;-71
2023/09/15 04:51:16;;;;;;;7.57;3.00;;;14.80;99.90;;;;;;4990789;28;20178;-72
2023/09/15 04:53:42;;;;;;;4.00;2.75;;;14.60;99.90;;;;;;4991001;28;20300;-72
2023/09/15 04:56:07;;;;;;;7.82;2.30;;;14.70;99.90;;;;;;4989906;28;20205;-72
2023/09/15 04:58:33;;;;;;;3.05;2.22;;;14.60;99.90;;;;;;4989678;28;20230;-72
2023/09/15 05:00:59;;;;;;;6.28;2.55;;;14.70;99.90;;;;;;4988717;28;20192;-72
2023/09/15 05:03:25;;;;;;;4.85;2.72;;;14.80;99.90;;;;;;4987443;28;20556;-72
2023/09/15 05:05:55;;;;;;;4.85;3.05;;;14.90;99.90;;;;;;4985247;28;20201;-72
2023/09/15 05:08:21;;;;;;;4.20;2.40;;;14.80;99.90;;;;;;4987127;28;20700;-72
2023/09/15 05:10:48;;;;;;;5.43;2.83;;;14.90;99.90;;;;;;4986781;28;20233;-73
2023/09/15 05:13:14;;;;;;;4.93;3.30;;;14.90;99.90;;;;;;4984041;28;20232;-70
2023/09/15 05:15:40;;;;;;;5.43;3.30;;;15.00;99.90;;;;;;4985121;28;20257;-73
2023/09/15 05:18:05;;;;;;;4.97;2.50;;;15.00;99.90;;;;;;4983036;28;20293;-73
2023/09/15 05:20:31;;;;;;;4.68;2.60;;;15.10;99.90;;;;;;4983304;28;20788;-73
2023/09/15 05:22:57;;;;;;;4.05;2.67;;;15.10;99.90;;;;;;4982556;28;20656;-71
2023/09/15 05:25:22;;;;;;;4.07;2.72;;;15.20;99.90;;;;;;4980541;28;20934;-73
2023/09/15 05:27:48;;;;;;;6.88;2.70;;;15.10;99.90;;;;;;5007666;28;20209;-72
2023/09/15 05:30:15;;;;;;;5.32;2.72;;;15.20;99.90;;;;;;4989734;28;20197;-71
2023/09/15 05:32:41;;;;;;;4.57;2.70;;;15.30;99.90;;;;;;4983992;28;20306;-72
2023/09/15 05:35:10;;;;;;;5.03;2.40;;;15.40;99.90;;;;;;4990029;28;20220;-71
2023/09/15 05:37:36;;;;;;;7.78;2.95;;;16.00;99.90;;;;;;4989404;28;20209;-72
2023/09/15 05:40:03;;;;;;;6.38;3.72;;;17.70;99.90;;;;;;4988817;28;20209;-73
2023/09/15 05:42:28;;;;;;;4.70;3.05;;;18.70;99.90;;;;;;4988579;28;20179;-73
2023/09/15 05:44:54;;;;;;;4.55;3.45;;;18.90;99.90;;;;;;5002775;28;20204;-72
2023/09/15 05:47:21;;;;;;;6.63;2.97;;;20.00;99.90;;;;;;5003963;28;20298;-72
2023/09/15 05:49:47;;;;;;;6.57;3.42;;;20.40;99.90;;;;;;4986309;28;20245;-72
2023/09/15 05:52:13;;;;;;;6.65;3.42;;;21.10;99.90;;;;;;4983460;28;20288;-73
2023/09/15 05:54:38;;;;;;;7.45;3.38;;;22.30;99.90;;;;;;4984415;28;20170;-73
2023/09/15 05:57:04;;;;;;;6.18;4.03;;;23.00;99.90;;;;;;4988822;28;20209;-73
2023/09/15 05:59:30;;;;;;;3.88;2.80;;;24.10;99.90;;;;;;4981601;28;20273;-73
2023/09/15 06:01:56;;;;;;;8.27;3.83;;;23.70;99.90;;;;;;4983167;28;20218;-72
2023/09/15 06:04:22;;;;;;;4.53;2.65;;;23.80;99.90;;;;;;4980983;28;20304;-73
2023/09/15 06:06:48;;;;;;;5.07;3.20;;;23.60;99.90;;;;;;4989328;28;20201;-73
2023/09/15 06:09:14;;;;;;;4.72;3.20;;;24.50;99.90;;;;;;5013625;28;20193;-71
2023/09/15 06:11:40;;;;;;;5.10;2.97;;;24.90;99.90;;;;;;5011606;28;20774;-74
2023/09/15 06:14:06;;;;;;;3.47;2.55;;;24.70;99.90;;;;;;4989387;28;20230;-73
2023/09/15 06:16:36;;;;;;;7.07;2.70;;;24.50;99.90;;;;;;4987653;28;20218;-73
2023/09/15 06:19:02;;;;;;;5.85;2.85;;;25.00;99.90;;;;;;4988716;28;20201;-73
2023/09/15 06:21:28;;;;;;;7.80;4.07;;;25.10;99.90;;;;;;4986150;28;20274;-73
2023/09/15 06:23:53;;;;;;;7.70;3.63;;;25.80;99.90;;;;;;4985945;28;20205;-73
2023/09/15 06:26:19;;;;;;;3.95;3.08;;;25.60;99.90;;;;;;4984470;28;20221;-73
2023/09/15 06:28:45;;;;;;;4.53;3.70;;;25.60;99.90;;;;;;4985362;28;20201;-74
2023/09/15 06:31:10;;;;;;;4.05;2.95;;;24.80;99.90;;;;;;4983440;28;20209;-73
2023/09/15 06:33:36;;;;;;;4.20;2.72;;;25.30;99.90;;;;;;4986250;28;20190;-74
2023/09/15 06:36:03;;;;;;;7.70;2.90;;;25.60;99.90;;;;;;4988533;28;20241;-73
2023/09/15 06:38:31;;;;;;;7.03;2.53;;;25.00;99.90;;;;;;4987851;28;20275;-71
2023/09/15 06:40:57;;;;;;;7.88;3.15;;;25.20;99.90;;;;;;4986351;28;20225;-71
2023/09/15 06:43:22;;;;;;;5.75;3.38;;;25.30;99.90;;;;;;4983269;28;20316;-71
2023/09/15 06:45:48;;;;;;;5.43;3.22;;;26.40;99.90;;;;;;5001433;28;20201;-71
2023/09/15 06:48:14;;;;;;;8.30;3.63;;;28.10;99.90;;;;;;4991032;28;20210;-70
2023/09/15 06:50:39;;;;;;;4.57;3.40;;;26.90;99.90;;;;;;4992235;28;20206;-70
2023/09/15 06:53:05;;;;;;;5.32;3.05;;;26.50;99.90;;;;;;4991975;28;20221;-72
2023/09/15 06:55:32;;;;;;;4.20;2.58;;;27.30;99.90;;;;;;4987136;28;20209;-71
2023/09/15 06:57:58;;;;;;;4.03;2.83;;;27.80;99.90;;;;;;5008135;28;20233;-72
2023/09/15 07:00:24;;;;;;;3.75;3.05;;;27.40;99.90;;;;;;4990093;28;20185;-72
2023/09/15 07:02:49;;;;;;;2.60;2.28;;;25.40;99.90;;;;;;4990854;28;20734;-73
2023/09/15 07:05:15;;;;;;;5.63;2.83;;;26.40;99.90;;;;;;4988795;28;20639;-72
2023/09/15 07:07:41;;;;;;;4.05;3.00;;;26.00;99.90;;;;;;4990706;28;20221;-73
2023/09/15 07:10:08;;;;;;;4.03;2.72;;;25.90;99.90;;;;;;4988347;28;20275;-73
2023/09/15 07:12:34;;;;;;;8.35;3.15;;;25.10;99.90;;;;;;4988118;28;20196;-72
2023/09/15 07:15:05;;;;;;;3.97;2.83;;;25.90;99.90;;;;;;4987956;28;20210;-72
2023/09/15 07:17:31;;;;;;;3.38;2.72;;;26.20;99.90;;;;;;4985497;28;20226;-72
2023/09/15 07:19:57;;;;;;;7.45;3.30;;;25.90;99.90;;;;;;4986380;28;20241;-72
2023/09/15 07:22:24;;;;;;;4.35;2.75;;;26.40;99.90;;;;;;4986820;28;20213;-71
2023/09/15 07:24:49;;;;;;;4.57;2.65;;;26.20;99.90;;;;;;4985660;28;20174;-72
2023/09/15 07:27:15;;;;;;;4.53;2.58;;;26.00;99.90;;;;;;5005134;28;20248;-72
2023/09/15 07:29:41;;;;;;;4.80;2.83;;;27.10;99.90;;;;;;4992330;28;20902;-72
2023/09/15 07:32:06;;;;;;;5.63;2.92;;;26.70;99.90;;;;;;4992123;28;20209;-72
2023/09/15 07:34:32;;;;;;;3.42;2.58;;;27.30;99.90;;;;;;4988030;28;20218;-73
2023/09/15 07:36:59;;;;;;;3.78;2.80;;;26.20;99.90;;;;;;4992467;28;20608;-72
2023/09/15 07:39:25;;;;;;;5.03;2.38;;;25.70;99.90;;;;;;4991611;28;20224;-73
2023/09/15 07:41:50;;;;;;;5.93;3.15;;;27.10;99.90;;;;;;4989545;28;20564;-72
2023/09/15 07:44:16;;;;;;;5.43;3.05;;;27.50;99.90;;;;;;4988410;28;20592;-72
2023/09/15 07:46:42;;;;;;;4.63;2.70;;;26.60;99.90;;;;;;4989052;28;20228;-72
2023/09/15 07:49:08;;;;;;;5.95;3.03;;;27.30;99.90;;;;;;5006426;28;20237;-73
2023/09/15 07:51:34;;;;;;;4.30;2.33;;;26.60;99.90;;;;;;4985841;28;20261;-72
2023/09/15 07:54:00;;;;;;;5.15;2.80;;;26.10;99.90;;;;;;5005448;28;20213;-73
2023/09/15 07:56:26;;;;;;;7.72;3.13;;;27.10;99.90;;;;;;4986670;28;20210;-72
2023/09/15 07:58:51;;;;;;;4.07;3.08;;;27.50;99.90;;;;;;4986265;28;20212;-73
2023/09/15 08:01:18;;;;;;;5.40;3.05;;;28.40;99.90;;;;;;4982151;28;20210;-72
2023/09/15 08:03:44;;;;;;;4.40;2.67;;;28.80;99.90;;;;;;4985739;28;20236;-72
2023/09/15 08:06:11;;;;;;;5.38;2.97;;;27.70;99.90;;;;;;4985619;28;20183;-72
2023/09/15 08:08:36;;;;;;;4.65;2.67;;;27.10;99.90;;;;;;4992331;28;20205;-72
2023/09/15 08:11:02;;;;;;;5.70;2.75;;;26.60;99.90;;;;;;4991686;28;20715;-72
2023/09/15 08:13:28;;;;;;;4.28;2.80;;;26.70;99.90;;;;;;4990695;28;20289;-72
2023/09/15 08:15:54;;;;;;;7.78;2.90;;;27.10;99.90;;;;;;5003887;28;20178;-72
2023/09/15 08:18:21;;;;;;;4.30;2.83;;;27.40;99.90;;;;;;5010474;28;20198;-70
2023/09/15 08:20:46;;;;;;;4.05;2.55;;;26.90;99.90;;;;;;4987988;28;20213;-72
2023/09/15 08:23:12;;;;;;;5.55;3.15;;;27.00;99.90;;;;;;4988435;28;20217;-72
2023/09/15 08:25:38;;;;;;;5.40;2.58;;;26.40;99.90;;;;;;4987697;28;20238;-72
2023/09/15 08:28:06;;;;;;;5.35;2.55;;;26.00;99.90;;;;;;4990311;28;20691;-72
2023/09/15 08:30:33;;;;;;;3.58;2.60;;;27.00;99.90;;;;;;4985538;28;20684;-72
2023/09/15 08:32:59;;;;;;;6.30;3.13;;;27.40;99.90;;;;;;4987472;28;20213;-72
2023/09/15 08:35:26;;;;;;;4.38;2.78;;;27.40;99.90;;;;;;4984260;28;20221;-72
2023/09/15 08:37:52;;;;;;;4.45;2.67;;;27.20;99.90;;;;;;4989076;28;20296;-72
2023/09/15 08:40:19;;;;;;;6.97;2.70;;;27.80;99.90;;;;;;4987735;28;20297;-71
2023/09/15 08:42:45;;;;;;;4.38;2.92;;;28.40;99.90;;;;;;4983918;28;20178;-72
2023/09/15 08:45:11;;;;;;;7.38;3.10;;;27.60;99.90;;;;;;4982333;28;20186;-72
2023/09/15 08:47:42;;;;;;;5.28;2.90;;;26.30;99.90;;;;;;4985342;28;20217;-72
2023/09/15 08:50:09;;;;;;;5.70;3.03;;;26.70;99.90;;;;;;5005963;28;20218;-71
2023/09/15 08:52:35;;;;;;;4.00;2.60;;;26.80;99.90;;;;;;4990652;28;20217;-72
2023/09/15 08:55:02;;;;;;;7.35;2.65;;;27.00;99.90;;;;;;4990344;28;20174;-73
2023/09/15 08:57:30;;;;;;;4.18;2.60;;;27.40;99.90;;;;;;4985982;28;20664;-72
2023/09/15 08:59:57;;;;;;;4.38;2.67;;;26.60;99.90;;;;;;4989990;28;20249;-74
2023/09/15 09:02:24;;;;;;;3.95;2.22;;;25.20;99.90;;;;;;4988684;28;20589;-73
2023/09/15 09:04:50;;;;;;;14.52;2.80;;;24.80;99.90;;;;;;5001952;28;20264;-74
2023/09/15 09:07:16;;;;;;;5.18;2.33;;;24.70;99.90;;;;;;4988384;28;20708;-73
2023/09/15 09:09:44;;;;;;;7.10;2.40;;;25.20;99.90;;;;;;4986858;28;20216;-73
2023/09/15 09:12:10;;;;;;;5.07;2.70;;;25.00;99.90;;;;;;4988018;28;20241;-73
2023/09/15 09:14:35;;;;;;;4.70;2.83;;;24.80;99.90;;;;;;4984421;28;20739;-74
2023/09/15 09:17:02;;;;;;;6.80;2.05;;;24.20;99.90;;;;;;4988296;28;20272;-74
2023/09/15 09:19:38;;;;;;;5.57;2.13;;;24.10;99.90;;;;;;4983581;28;20612;-74
2023/09/15 09:22:07;;;;;;;2.78;2.00;;;24.70;99.90;;;;;;4983000;28;20209;-71
2023/09/15 09:24:34;;;;;;;3.13;1.90;;;24.00;99.90;;;;;;4982347;28;20233;-74
2023/09/15 09:26:59;;;;;;;4.80;2.55;;;24.20;99.90;;;;;;4990221;28;20229;-74
2023/09/15 09:29:28;;;;;;;6.18;2.53;;;23.90;99.90;;;;;;5013128;28;20642;-71
2023/09/15 09:31:55;;;;;;;3.90;2.05;;;23.50;99.90;;;;;;4982057;28;20234;-72
2023/09/15 09:34:21;;;;;;;4.05;1.88;;;23.60;99.90;;;;;;4988218;28;20710;-74
2023/09/15 09:36:51;;;;;;;3.17;1.85;;;23.70;99.90;;;;;;4988455;28;20201;-74
2023/09/15 09:39:16;;;;;;;3.80;2.03;;;23.60;99.90;;;;;;4990155;28;20197;-73
2023/09/15 09:41:44;;;;;;;7.43;2.05;;;23.60;99.90;;;;;;4988521;28;20220;-74
2023/09/15 09:44:12;;;;;;;4.80;2.00;;;23.60;99.90;;;;;;4988745;28;20237;-75
2023/09/15 09:46:39;;;;;;;4.43;2.65;;;23.90;99.90;;;;;;4985611;28;20889;-71
2023/09/15 09:49:06;;;;;;;3.00;1.88;;;24.10;99.90;;;;;;4986683;28;20252;-71
2023/09/15 09:51:32;;;;;;;2.58;1.80;;;24.20;99.90;;;;;;4983949;28;20192;-74
2023/09/15 09:53:57;;;;;;;4.70;2.42;;;24.00;99.90;;;;;;4985954;28;20376;-74
2023/09/15 09:56:33;;;;;;;5.05;2.10;;;23.90;99.90;;;;;;5002320;28;20305;-73
2023/09/15 09:59:11;;;;;;;2.60;1.63;;;23.30;99.90;;;;;;4984340;28;20217;-74
2023/09/15 10:01:37;;;;;;;3.67;1.73;;;23.10;99.90;;;;;;4982091;28;20213;-71
2023/09/15 10:04:05;;;;;;;4.03;1.52;;;22.80;99.90;;;;;;4982820;28;20228;-74
2023/09/15 10:06:36;;;;;;;3.92;1.65;;;22.80;99.90;;;;;;4983422;28;20212;-74
2023/09/15 10:09:08;;;;;;;3.83;1.65;;;23.10;99.90;;;;;;4989563;28;20226;-74
2023/09/15 10:11:34;;;;;;;2.80;1.75;;;23.30;99.90;;;;;;5011272;28;20209;-74
2023/09/15 10:14:02;;;;;;;5.82;2.42;;;23.70;99.90;;;;;;4989687;28;20202;-74
2023/09/15 10:16:32;;;;;;;3.85;2.00;;;24.00;99.90;;;;;;4988140;28;20264;-74
2023/09/15 10:18:59;;;;;;;3.08;1.85;;;23.70;99.90;;;;;;4988471;28;20201;-71
2023/09/15 10:21:26;;;;;;;2.58;1.63;;;24.00;99.90;;;;;;4983506;28;20182;-73
2023/09/15 10:24:07;;;;;;;4.38;2.08;;;24.40;99.90;;;;;;4986221;28;20263;-74
2023/09/15 10:26:34;;;;;;;4.57;2.03;;;24.00;99.90;;;;;;4984326;28;20213;-73
2023/09/15 10:29:04;;;;;;;4.40;1.70;;;24.10;99.90;;;;;;4981821;28;20260;-74
2023/09/15 10:31:32;;;;;;;4.20;2.42;;;23.90;99.90;;;;;;4981267;28;20778;-71
2023/09/15 10:34:04;;;;;;;3.25;2.40;;;24.10;99.90;;;;;;4981122;28;20554;-72
2023/09/15 10:36:32;;;;;;;3.33;2.20;;;24.00;99.90;;;;;;4985347;28;20747;-72
2023/09/15 10:38:58;;;;;;;3.42;1.85;;;23.70;99.90;;;;;;4984239;28;20221;-72
2023/09/15 10:41:28;;;;;;;3.30;1.70;;;23.30;99.90;;;;;;4995212;28;20692;-71
2023/09/15 10:43:54;;;;;;;8.63;2.85;;;23.60;99.90;;;;;;4982993;28;20263;-72
2023/09/15 10:46:20;;;;;;;2.78;2.08;;;23.70;99.90;;;;;;4978782;28;20217;-72
2023/09/15 10:48:48;;;;;;;3.83;2.03;;;23.60;99.90;;;;;;5012269;28;20543;-72
2023/09/15 10:51:18;;;;;;;3.63;2.38;;;23.30;99.90;;;;;;4989750;28;20181;-72
2023/09/15 10:53:45;;;;;;;2.45;2.10;;;23.60;99.90;;;;;;4988413;28;20320;-72
2023/09/15 10:56:11;;;;;;;3.67;1.70;;;23.50;99.90;;;;;;4987024;28;20219;-72
2023/09/15 10:58:37;;;;;;;6.53;1.92;;;23.30;99.90;;;;;;4988380;28;20232;-71
2023/09/15 11:01:03;;;;;;;6.38;2.25;;;23.30;99.90;;;;;;4987091;28;20252;-72
2023/09/15 11:03:30;;;;;;;4.05;2.20;;;22.90;99.90;;;;;;4985592;28;20185;-73
2023/09/15 11:05:59;;;;;;;4.57;2.22;;;23.20;99.90;;;;;;4983745;28;20768;-71
2023/09/15 11:08:25;;;;;;;4.57;2.47;;;22.90;99.90;;;;;;4985901;28;20225;-72
2023/09/15 11:10:58;;;;;;;5.78;2.30;;;23.10;99.90;;;;;;4983332;28;20206;-71
2023/09/15 11:13:24;;;;;;;6.30;1.95;;;23.30;99.90;;;;;;4982419;28;20701;-71
2023/09/15 11:15:50;;;;;;;3.95;2.28;;;23.70;99.90;;;;;;4983561;28;20188;-71
2023/09/15 11:18:17;;;;;;;3.20;1.98;;;23.70;99.90;;;;;;4986097;28;20181;-72
2023/09/15 11:20:43;;;;;;;6.03;3.33;;;23.70;99.90;;;;;;4985627;28;20293;-72
2023/09/15 11:23:09;;;;;;;3.88;2.72;;;23.50;99.90;;;;;;4990393;28;20775;-72
2023/09/15 11:25:35;;;;;;;3.72;2.50;;;23.50;99.90;;;;;;4985866;28;20214;-72
2023/09/15 11:28:01;;;;;;;5.00;3.03;;;23.50;99.90;;;;;;4993218;28;20678;-72
2023/09/15 11:30:28;;;;;;;3.47;2.22;;;23.40;99.90;;;;;;4991806;28;20205;-73
2023/09/15 11:32:55;;;;;;;3.85;2.10;;;23.40;99.90;;;;;;4992152;28;20718;-72
2023/09/15 11:35:24;;;;;;;3.42;2.30;;;23.50;99.90;;;;;;4991535;28;20640;-72
2023/09/15 11:37:52;;;;;;;2.30;1.63;;;23.40;99.90;;;;;;4991599;28;20221;-72
2023/09/15 11:40:22;;;;;;;4.03;1.98;;;23.20;99.90;;;;;;4989925;28;20252;-72
2023/09/15 11:42:55;;;;;;;3.53;2.40;;;23.00;99.90;;;;;;4988386;28;20174;-72
2023/09/15 11:45:26;;;;;;;3.10;1.92;;;23.40;99.90;;;;;;4988673;28;20194;-71
2023/09/15 11:47:53;;;;;;;3.53;2.30;;;23.50;99.90;;;;;;5004180;28;20660;-72
2023/09/15 11:50:19;;;;;;;3.13;2.15;;;23.10;99.90;;;;;;4986197;28;20226;-72
2023/09/15 11:52:45;;;;;;;4.70;2.63;;;23.10;99.90;;;;;;4986985;28;20217;-72
2023/09/15 11:55:22;;;;;;;4.13;1.80;;;22.90;99.90;;;;;;4986501;28;20263;-72
2023/09/15 11:57:50;;;;;;;5.90;2.30;;;22.80;99.90;;;;;;4989167;28;20815;-71
2023/09/15 12:00:22;;;;;;;5.05;3.42;;;22.90;99.90;;;;;;4984468;28;20198;-72
2023/09/15 12:02:49;;;;;;;2.78;2.20;;;23.30;99.90;;;;;;4985283;28;20312;-72
2023/09/15 12:05:16;;;;;;;2.88;2.00;;;23.50;99.90;;;;;;4982832;28;20218;-71
2023/09/15 12:07:45;;;;;;;4.97;2.13;;;23.40;99.90;;;;;;4986544;28;20261;-72
2023/09/15 12:10:21;;;;;;;4.65;2.08;;;23.40;99.90;;;;;;4991682;28;20279;-72
2023/09/15 12:12:47;;;;;;;2.60;1.92;;;23.10;99.90;;;;;;5005707;28;20185;-72
2023/09/15 12:15:16;;;;;;;6.68;4.40;;;23.50;99.90;;;;;;4990000;28;20185;-72
2023/09/15 12:17:45;;;;;;;3.72;2.05;;;23.70;99.90;;;;;;4989246;28;20765;-72
2023/09/15 12:20:12;;;;;;;4.68;2.40;;;23.50;99.90;;;;;;4989719;28;20708;-70
2023/09/15 12:22:39;;;;;;;3.35;2.35;;;23.70;99.90;;;;;;4989018;28;20301;-72
2023/09/15 12:25:06;;;;;;;3.95;1.88;;;23.70;99.90;;;;;;4989035;28;20213;-72
2023/09/15 12:27:34;;;;;;;3.65;2.10;;;23.80;99.90;;;;;;4986351;28;20688;-72
2023/09/15 12:30:05;;;;;;;4.30;1.73;;;23.90;99.90;;;;;;4987540;28;20221;-72
2023/09/15 12:32:32;;;;;;;3.65;1.75;;;23.50;99.90;;;;;;4984357;28;20564;-72
2023/09/15 12:34:58;;;;;;;3.22;1.80;;;23.80;99.90;;;;;;4986962;28;20248;-72
2023/09/15 12:37:27;;;;;;;3.65;2.45;;;23.50;99.90;;;;;;4986625;28;20234;-72
2023/09/15 12:39:53;;;;;;;3.50;2.45;;;23.50;99.90;;;;;;4983134;28;20205;-72
2023/09/15 12:42:19;;;;;;;3.88;1.90;;;23.60;99.90;;;;;;4982848;28;20556;-72
2023/09/15 12:44:45;;;;;;;3.05;1.95;;;23.70;99.90;;;;;;4983396;28;20210;-72
2023/09/15 12:47:11;;;;;;;3.63;1.85;;;23.40;99.90;;;;;;5009364;28;20217;-72